This is the latest recevied weather packets stored in our database for station/object NR6G-5. If no packets are shown the sender has not sent any weather packets the latest 1 day(s).
| Time | Temp. | Humidity | Pressure | Rain* | Wind** | Luminosity | Snow |
|---|---|---|---|---|---|---|---|
| 1778039263 | 13.89° C | 86% | 1015 hPa | 0 mm | 1.34 m/s, 66° | - | - |
| 1778038964 | 13.89° C | 85% | 1015 hPa | 0 mm | 1.34 m/s, 64° | - | - |
| 1778038664 | 13.33° C | 86% | 1014.8 hPa | 0 mm | 0.89 m/s, 66° | - | - |
| 1778038365 | 13.33° C | 85% | 1014.9 hPa | 0 mm | 1.34 m/s, 67° | - | - |
| 1778038063 | 13.89° C | 85% | 1014.8 hPa | 0 mm | 1.79 m/s, 63° | - | - |
| 1778037764 | 13.89° C | 84% | 1014.8 hPa | 0 mm | 2.24 m/s, 62° | - | - |
| 1778037463 | 13.89° C | 83% | 1014.7 hPa | 0 mm | 1.34 m/s, 66° | - | - |
| 1778037164 | 14.44° C | 82% | 1014.6 hPa | 0 mm | 0.89 m/s, 75° | - | - |
| 1778036592 | 15° C | 79% | 1014.4 hPa | 0 mm | 0 m/s | - | - |
| 1778036292 | 15.56° C | 78% | 1014.4 hPa | 0 mm | 0 m/s | - | - |
| 1778035990 | 15.56° C | 78% | 1014.3 hPa | 0 mm | 0 m/s | - | - |
| 1778035690 | 15.56° C | 78% | 1014.3 hPa | 0 mm | 0 m/s | - | - |
| 1778035390 | 15.56° C | 77% | 1014.2 hPa | 0 mm | 0 m/s | - | - |
| 1778035091 | 15.56° C | 76% | 1014.2 hPa | 0 mm | 0 m/s | - | - |
| 1778034790 | 16.11° C | 76% | 1014.2 hPa | 0 mm | 0 m/s | - | - |
| 1778034493 | 16.11° C | 75% | 1014.2 hPa | 0 mm | 0.89 m/s, 85° | - | - |
| 1778033891 | 16.11° C | 75% | 1014.1 hPa | 0 mm | 1.34 m/s, 92° | - | - |
| 1778033591 | 16.11° C | 75% | 1014.1 hPa | 0 mm | 0.45 m/s, 97° | - | - |
| 1778033291 | 16.11° C | 74% | 1014 hPa | 0 mm | 0.45 m/s, 105° | - | - |
| 1778032991 | 16.11° C | 74% | 1013.9 hPa | 0 mm | 0.89 m/s, 100° | - | - |
| 1778032691 | 16.67° C | 75% | 1013.9 hPa | 0 mm | 0.89 m/s, 94° | - | - |
| 1778032391 | 16.67° C | 75% | 1013.9 hPa | 0 mm | 0.45 m/s, 110° | - | - |
| 1778032091 | 16.67° C | 74% | 1013.9 hPa | 0 mm | 0 m/s | - | - |
| 1778031792 | 16.67° C | 74% | 1013.9 hPa | 0 mm | 0 m/s | - | - |
| 1778031491 | 16.67° C | 74% | 1013.8 hPa | 0 mm | 0 m/s | - | - |
* Rain latest hour (hover to see other rain measurements)
** Current wind speed in m/s (hover to see current wind gust speed)